createdAt,value
2023-01-11T00:00:18.969Z,58.01
2023-01-11T00:01:18.980Z,58.01
2023-01-11T00:02:18.973Z,57.69
2023-01-11T00:03:18.976Z,58.33
2023-01-11T00:04:19.031Z,58.01
2023-01-11T00:05:18.932Z,58.33
2023-01-11T00:06:18.944Z,58.65
2023-01-11T00:07:18.967Z,58.49
2023-01-11T00:08:18.925Z,58.17
2023-01-11T00:09:18.924Z,58.17
2023-01-11T00:10:18.922Z,58.33
2023-01-11T00:11:18.892Z,57.69
2023-01-11T00:12:18.910Z,57.85
2023-01-11T00:13:18.952Z,58.01
2023-01-11T00:14:18.881Z,58.49
2023-01-11T00:15:18.897Z,58.33
2023-01-11T00:16:18.926Z,58.49
2023-01-11T00:17:18.866Z,59.14
2023-01-11T00:18:18.873Z,58.33
2023-01-11T00:19:18.869Z,58.81
2023-01-11T00:20:18.877Z,58.97
2023-01-11T00:21:18.850Z,58.97
2023-01-11T00:22:18.846Z,58.49
2023-01-11T00:23:18.834Z,58.97
2023-01-11T00:24:18.817Z,58.81
2023-01-11T00:25:18.893Z,58.65
2023-01-11T00:26:18.821Z,58.65
2023-01-11T00:27:18.810Z,58.97
2023-01-11T00:28:18.825Z,58.65
2023-01-11T00:29:18.802Z,58.49
2023-01-11T00:30:18.792Z,58.49
2023-01-11T00:31:18.851Z,58.49
2023-01-11T00:32:18.772Z,59.14
2023-01-11T00:33:18.772Z,58.49
2023-01-11T00:34:18.800Z,58.33
2023-01-11T00:35:18.772Z,58.65
2023-01-11T00:36:18.765Z,58.81
2023-01-11T00:37:18.834Z,58.33
2023-01-11T00:38:18.728Z,58.81
2023-01-11T00:39:18.734Z,58.81
2023-01-11T00:40:18.736Z,58.17
2023-01-11T00:41:18.803Z,58.01
2023-01-11T00:42:18.716Z,58.49
2023-01-11T00:43:18.700Z,58.01
2023-01-11T00:44:18.704Z,58.49
2023-01-11T00:45:18.780Z,58.49
2023-01-11T00:46:18.753Z,58.97
2023-01-11T00:47:18.687Z,58.49
2023-01-11T00:48:18.697Z,58.65
2023-01-11T00:49:18.672Z,58.49
2023-01-11T00:50:18.657Z,58.65
2023-01-11T00:51:19.711Z,58.65
2023-01-11T00:52:18.650Z,59.46
2023-01-11T00:53:18.648Z,59.94
2023-01-11T00:54:18.699Z,59.30
2023-01-11T00:55:18.632Z,58.81
2023-01-11T00:56:18.638Z,58.65
2023-01-11T00:57:18.653Z,58.33
2023-01-11T00:58:18.612Z,58.33
2023-01-11T00:59:18.610Z,58.49
2023-01-11T01:00:18.603Z,58.81
2023-01-11T01:01:18.656Z,58.49
2023-01-11T01:02:18.633Z,58.33
2023-01-11T01:03:18.589Z,58.17
2023-01-11T01:04:18.597Z,58.17
2023-01-11T01:05:18.593Z,59.62
2023-01-11T01:06:18.578Z,58.81
2023-01-11T01:07:18.581Z,58.17
2023-01-11T01:08:18.580Z,58.81
2023-01-11T01:09:18.553Z,59.14
2023-01-11T01:10:18.608Z,58.49
2023-01-11T01:11:18.563Z,58.33
2023-01-11T01:12:18.531Z,58.49
2023-01-11T01:13:18.569Z,58.33
2023-01-11T01:14:18.529Z,57.85
2023-01-11T01:15:18.513Z,58.49
2023-01-11T01:16:18.547Z,58.17
2023-01-11T01:17:18.507Z,58.01
2023-01-11T01:18:18.517Z,58.01
2023-01-11T01:19:18.489Z,58.01
2023-01-11T01:20:18.509Z,58.17
2023-01-11T01:21:18.491Z,58.01
2023-01-11T01:22:18.469Z,58.17
2023-01-11T01:23:18.483Z,58.33
2023-01-11T01:24:18.499Z,58.33
2023-01-11T01:25:18.449Z,57.85
2023-01-11T01:26:18.450Z,59.14
2023-01-11T01:27:18.480Z,57.85
2023-01-11T01:28:18.449Z,57.85
2023-01-11T01:29:18.508Z,58.01
2023-01-11T01:30:18.425Z,58.33
2023-01-11T01:31:18.473Z,57.85
2023-01-11T01:32:18.440Z,58.17
2023-01-11T01:33:18.432Z,58.17
2023-01-11T01:34:18.456Z,58.01
2023-01-11T01:35:18.404Z,58.17
2023-01-11T01:36:18.391Z,58.17
2023-01-11T01:37:18.377Z,58.49
2023-01-11T01:38:18.404Z,58.01
2023-01-11T01:39:18.369Z,57.36
2023-01-11T01:40:18.382Z,58.17
2023-01-11T01:41:18.379Z,58.01
2023-01-11T01:42:18.359Z,58.01
2023-01-11T01:43:18.350Z,57.69
2023-01-11T01:44:18.356Z,58.17
2023-01-11T01:45:18.346Z,58.97
2023-01-11T01:46:18.369Z,58.01
2023-01-11T01:47:18.351Z,58.01
2023-01-11T01:48:18.311Z,58.01
2023-01-11T01:49:18.308Z,58.01
2023-01-11T01:50:18.353Z,58.01
2023-01-11T01:51:18.304Z,58.33
2023-01-11T01:52:18.303Z,58.33
2023-01-11T01:53:18.324Z,57.69
2023-01-11T01:54:18.299Z,57.85
2023-01-11T01:55:18.317Z,57.52
2023-01-11T01:56:18.304Z,57.69
2023-01-11T01:57:18.270Z,58.01
2023-01-11T01:58:18.262Z,58.01
2023-01-11T01:59:18.337Z,58.01
2023-01-11T02:00:18.268Z,58.81
2023-01-11T02:01:18.270Z,57.69
2023-01-11T02:02:18.274Z,57.85
2023-01-11T02:03:18.227Z,57.69
2023-01-11T02:04:18.227Z,57.69
2023-01-11T02:05:18.230Z,57.20
2023-01-11T02:06:18.252Z,57.85
2023-01-11T02:07:18.209Z,57.52
2023-01-11T02:08:18.202Z,58.01
2023-01-11T02:09:18.200Z,57.69
2023-01-11T02:10:18.189Z,57.20
2023-01-11T02:11:18.208Z,57.69
2023-01-11T02:12:18.189Z,57.85
2023-01-11T02:13:18.165Z,58.65
2023-01-11T02:14:18.186Z,57.69
2023-01-11T02:15:18.149Z,57.69
2023-01-11T02:16:18.200Z,57.85
2023-01-11T02:17:18.185Z,57.20
2023-01-11T02:18:18.165Z,57.52
2023-01-11T02:19:18.134Z,58.01
2023-01-11T02:20:18.150Z,57.69
2023-01-11T02:21:18.118Z,57.69
2023-01-11T02:22:18.118Z,57.85
2023-01-11T02:23:18.151Z,57.69
2023-01-11T02:24:18.105Z,57.36
2023-01-11T02:25:18.082Z,57.69
2023-01-11T02:26:19.104Z,57.69
2023-01-11T02:27:18.085Z,57.52
2023-01-11T02:28:18.090Z,57.69
2023-01-11T02:29:18.131Z,57.69
2023-01-11T02:30:18.074Z,57.52
2023-01-11T02:31:19.615Z,57.52
2023-01-11T02:32:18.081Z,57.36
2023-01-11T02:33:18.082Z,57.36
2023-01-11T02:34:19.068Z,57.36
2023-01-11T02:35:18.034Z,57.52
2023-01-11T02:36:18.025Z,57.36
2023-01-11T02:37:18.031Z,58.01
2023-01-11T02:38:18.024Z,57.36
2023-01-11T02:39:18.029Z,57.36
2023-01-11T02:40:18.034Z,57.69
2023-01-11T02:41:17.999Z,57.36
2023-01-11T02:42:18.009Z,56.72
2023-01-11T02:43:18.005Z,57.36
2023-01-11T02:44:18.019Z,57.85
2023-01-11T02:45:17.992Z,57.36
2023-01-11T02:46:18.008Z,57.52
2023-01-11T02:47:17.958Z,57.36
2023-01-11T02:48:17.985Z,59.78
2023-01-11T02:49:17.951Z,57.69
2023-01-11T02:50:17.997Z,58.01
2023-01-11T02:51:17.959Z,57.69
2023-01-11T02:52:17.939Z,57.20
2023-01-11T02:53:17.947Z,57.52
2023-01-11T02:54:17.934Z,57.69
2023-01-11T02:55:17.932Z,57.36
2023-01-11T02:56:17.925Z,57.69
2023-01-11T02:57:17.918Z,57.52
2023-01-11T02:58:17.902Z,57.52
2023-01-11T02:59:17.899Z,57.36
2023-01-11T03:00:17.937Z,57.36
2023-01-11T03:01:17.934Z,57.85
2023-01-11T03:02:17.881Z,57.69
2023-01-11T03:03:17.879Z,57.52
2023-01-11T03:04:17.864Z,57.36
2023-01-11T03:05:17.884Z,57.52
2023-01-11T03:06:17.891Z,57.52
2023-01-11T03:07:17.848Z,57.20
2023-01-11T03:08:17.834Z,57.85
2023-01-11T03:09:17.898Z,57.36
2023-01-11T03:10:17.821Z,57.36
2023-01-11T03:11:17.839Z,57.52
2023-01-11T03:12:17.821Z,57.69
2023-01-11T03:13:17.814Z,57.85
2023-01-11T03:14:17.806Z,59.62
2023-01-11T03:15:17.821Z,57.52
2023-01-11T03:16:18.874Z,57.69
2023-01-11T03:17:17.794Z,57.36
2023-01-11T03:18:17.807Z,57.20
2023-01-11T03:19:17.795Z,57.69
2023-01-11T03:20:17.766Z,57.52
2023-01-11T03:21:17.844Z,57.85
2023-01-11T03:22:17.788Z,57.69
2023-01-11T03:23:17.763Z,57.52
2023-01-11T03:24:17.757Z,57.52
2023-01-11T03:25:17.802Z,58.33
2023-01-11T03:26:17.747Z,57.36
2023-01-11T03:27:17.749Z,57.85
2023-01-11T03:28:17.758Z,58.81
2023-01-11T03:29:17.718Z,58.01
2023-01-11T03:30:17.725Z,57.69
2023-01-11T03:31:17.769Z,57.85
2023-01-11T03:32:17.730Z,58.97
2023-01-11T03:33:17.706Z,58.65
2023-01-11T03:34:17.710Z,57.04
2023-01-11T03:35:17.688Z,57.69
2023-01-11T03:36:17.702Z,57.69
2023-01-11T03:37:17.727Z,58.17
2023-01-11T03:38:17.667Z,56.56
2023-01-11T03:39:17.673Z,57.20
2023-01-11T03:40:17.671Z,58.01
2023-01-11T03:41:17.652Z,58.01
2023-01-11T03:42:17.646Z,58.01
2023-01-11T03:43:18.143Z,58.33
2023-01-11T03:44:18.631Z,57.04
2023-01-11T03:45:17.643Z,57.69
2023-01-11T03:46:17.675Z,58.01
2023-01-11T03:47:17.627Z,57.20
2023-01-11T03:48:17.628Z,57.52
2023-01-11T03:49:17.616Z,56.88
2023-01-11T03:50:17.601Z,58.65
2023-01-11T03:51:17.616Z,58.01
2023-01-11T03:52:17.619Z,57.69
2023-01-11T03:53:17.604Z,57.36
2023-01-11T03:54:17.597Z,58.17
2023-01-11T03:55:17.593Z,58.33
2023-01-11T03:56:17.562Z,57.69
2023-01-11T03:57:17.566Z,60.91
2023-01-11T03:58:17.577Z,58.17
2023-01-11T03:59:17.555Z,57.36
2023-01-11T04:00:17.552Z,58.33
2023-01-11T04:01:17.602Z,58.33
2023-01-11T04:02:17.536Z,57.69
2023-01-11T04:03:17.530Z,59.14
2023-01-11T04:04:17.605Z,57.85
2023-01-11T04:05:17.541Z,57.69
2023-01-11T04:06:17.507Z,59.62
2023-01-11T04:07:17.525Z,58.97
2023-01-11T04:08:17.502Z,57.20
2023-01-11T04:09:17.506Z,58.01
2023-01-11T04:10:17.523Z,58.17
2023-01-11T04:11:17.483Z,59.62
2023-01-11T04:12:17.477Z,58.97
2023-01-11T04:13:17.471Z,59.14
2023-01-11T04:14:17.515Z,62.36
2023-01-11T04:15:17.474Z,57.69
2023-01-11T04:16:17.472Z,59.94
2023-01-11T04:17:17.443Z,60.10
2023-01-11T04:18:17.445Z,59.62
2023-01-11T04:19:17.441Z,59.14
2023-01-11T04:20:17.461Z,59.14
2023-01-11T04:21:17.439Z,58.01
2023-01-11T04:22:17.429Z,59.14
2023-01-11T04:23:17.433Z,58.33
2023-01-11T04:24:17.406Z,61.07
2023-01-11T04:25:17.415Z,58.65
2023-01-11T04:26:17.493Z,58.65
2023-01-11T04:27:17.394Z,60.42
2023-01-11T04:28:17.382Z,58.97
2023-01-11T04:29:17.399Z,59.94
2023-01-11T04:30:17.393Z,64.61
2023-01-11T04:31:17.440Z,58.81
2023-01-11T04:32:17.457Z,61.55
2023-01-11T04:33:17.359Z,62.68
2023-01-11T04:34:17.349Z,59.14
2023-01-11T04:35:17.367Z,59.62
2023-01-11T04:36:17.341Z,59.62
2023-01-11T04:37:17.347Z,59.14
2023-01-11T04:38:17.336Z,61.07
2023-01-11T04:39:17.341Z,62.68
2023-01-11T04:40:17.364Z,60.42
2023-01-11T04:41:17.322Z,58.33
2023-01-11T04:42:17.306Z,64.13
2023-01-11T04:43:17.294Z,62.20
2023-01-11T04:44:17.337Z,58.81
2023-01-11T04:45:17.295Z,58.81
2023-01-11T04:46:17.296Z,59.78
2023-01-11T04:47:17.367Z,62.52
2023-01-11T04:48:17.269Z,65.90
2023-01-11T04:49:17.261Z,61.07
2023-01-11T04:50:17.312Z,63.65
2023-01-11T04:51:17.243Z,62.84
2023-01-11T04:52:17.285Z,60.42
2023-01-11T04:53:17.315Z,61.55
2023-01-11T04:54:17.228Z,59.46
2023-01-11T04:55:17.225Z,58.97
2023-01-11T04:56:17.237Z,58.49
2023-01-11T04:57:17.345Z,61.39
2023-01-11T04:58:17.212Z,61.23
2023-01-11T04:59:17.212Z,64.13
2023-01-11T05:00:17.223Z,58.65
2023-01-11T05:01:17.275Z,59.46
2023-01-11T05:02:17.205Z,59.46
2023-01-11T05:03:17.296Z,61.71
2023-01-11T05:04:17.237Z,60.59
2023-01-11T05:05:17.191Z,62.04
2023-01-11T05:06:17.169Z,58.65
2023-01-11T05:07:17.226Z,59.46
2023-01-11T05:08:17.173Z,58.65
2023-01-11T05:09:17.159Z,60.42
2023-01-11T05:10:17.149Z,65.10
2023-01-11T05:11:17.124Z,59.14
2023-01-11T05:12:17.133Z,65.26
2023-01-11T05:13:17.148Z,60.75
2023-01-11T05:14:17.125Z,59.30
2023-01-11T05:15:17.134Z,62.84
2023-01-11T05:16:17.144Z,60.91
2023-01-11T05:17:17.158Z,59.94
2023-01-11T05:18:17.112Z,61.07
2023-01-11T05:19:17.610Z,59.62
2023-01-11T05:20:17.117Z,61.71
2023-01-11T05:21:17.079Z,64.61
2023-01-11T05:22:17.072Z,60.75
2023-01-11T05:23:17.078Z,63.16
2023-01-11T05:24:18.102Z,65.58
2023-01-11T05:25:17.061Z,62.68
2023-01-11T05:26:17.069Z,59.14
2023-01-11T05:27:17.071Z,59.30
2023-01-11T05:28:17.071Z,60.26
2023-01-11T05:29:17.057Z,65.90
2023-01-11T05:30:17.040Z,61.55
2023-01-11T05:31:17.107Z,61.55
2023-01-11T05:32:17.038Z,61.71
2023-01-11T05:33:17.079Z,68.48
2023-01-11T05:34:17.046Z,64.61
2023-01-11T05:35:17.038Z,67.19
2023-01-11T05:36:17.197Z,70.09
2023-01-11T05:37:16.997Z,63.65
2023-01-11T05:38:17.027Z,64.13
2023-01-11T05:39:16.995Z,62.52
2023-01-11T05:40:17.000Z,66.55
2023-01-11T05:41:17.005Z,64.78
2023-01-11T05:42:16.978Z,62.20
2023-01-11T05:43:16.949Z,62.20
2023-01-11T05:44:16.978Z,59.94
2023-01-11T05:45:16.957Z,63.00
2023-01-11T05:46:17.013Z,62.84
2023-01-11T05:47:16.953Z,61.71
2023-01-11T05:48:16.922Z,66.23
2023-01-11T05:49:16.987Z,65.42
2023-01-11T05:50:16.987Z,62.68
2023-01-11T05:51:16.931Z,65.74
2023-01-11T05:52:16.907Z,65.42
2023-01-11T05:53:16.912Z,67.03
2023-01-11T05:54:16.940Z,67.84
2023-01-11T05:55:16.918Z,65.90
2023-01-11T05:56:16.886Z,66.06
2023-01-11T05:57:16.903Z,65.74
2023-01-11T05:58:16.862Z,64.29
2023-01-11T05:59:16.915Z,63.65
2023-01-11T06:00:16.932Z,64.29
2023-01-11T06:01:16.886Z,64.45
2023-01-11T06:02:16.938Z,64.61
2023-01-11T06:03:16.935Z,62.04
2023-01-11T06:04:16.852Z,68.48
2023-01-11T06:05:16.840Z,61.07
2023-01-11T06:06:16.820Z,59.46
2023-01-11T06:07:16.832Z,62.04
2023-01-11T06:08:16.812Z,65.58
2023-01-11T06:09:16.837Z,64.29
2023-01-11T06:10:16.827Z,66.39
2023-01-11T06:11:16.878Z,59.30
2023-01-11T06:12:16.806Z,59.46
2023-01-11T06:13:16.828Z,67.51
2023-01-11T06:14:16.803Z,60.91
2023-01-11T06:15:16.775Z,62.52
2023-01-11T06:16:16.826Z,64.78
2023-01-11T06:17:16.805Z,62.36
2023-01-11T06:18:16.744Z,61.71
2023-01-11T06:19:16.797Z,62.20
2023-01-11T06:20:16.748Z,60.10
2023-01-11T06:21:16.763Z,67.35
2023-01-11T06:22:16.728Z,67.35
2023-01-11T06:23:17.752Z,61.87
2023-01-11T06:24:16.715Z,66.87
2023-01-11T06:25:16.713Z,66.39
2023-01-11T06:26:16.752Z,64.94
2023-01-11T06:27:16.699Z,67.51
2023-01-11T06:28:16.713Z,60.42
2023-01-11T06:29:16.721Z,61.55
2023-01-11T06:30:16.702Z,68.80
2023-01-11T06:31:17.871Z,67.51
2023-01-11T06:32:17.671Z,62.04
2023-01-11T06:33:16.692Z,61.87
2023-01-11T06:34:16.680Z,63.81
2023-01-11T06:35:16.652Z,64.61
2023-01-11T06:36:16.674Z,66.39
2023-01-11T06:37:16.658Z,64.13
2023-01-11T06:38:16.681Z,62.68
2023-01-11T06:39:16.701Z,69.45
2023-01-11T06:40:16.634Z,68.00
2023-01-11T06:41:16.630Z,67.51
2023-01-11T06:42:16.646Z,69.29
2023-01-11T06:43:16.619Z,64.13
2023-01-11T06:44:16.627Z,61.71
2023-01-11T06:45:16.607Z,63.97
2023-01-11T06:46:16.660Z,61.23
2023-01-11T06:47:16.595Z,62.04
2023-01-11T06:48:16.578Z,64.61
2023-01-11T06:49:16.601Z,61.07
2023-01-11T06:50:16.565Z,61.07
2023-01-11T06:51:16.551Z,62.68
2023-01-11T06:52:16.567Z,62.68
2023-01-11T06:53:16.565Z,68.80
2023-01-11T06:54:16.531Z,61.23
2023-01-11T06:55:16.583Z,67.68
2023-01-11T06:56:16.532Z,68.16
2023-01-11T06:57:16.523Z,65.58
2023-01-11T06:58:16.529Z,60.59
2023-01-11T06:59:16.543Z,63.00
2023-01-11T07:00:16.520Z,69.93
2023-01-11T07:01:16.632Z,65.58
2023-01-11T07:02:16.488Z,64.94
2023-01-11T07:03:16.486Z,60.10
2023-01-11T07:04:16.491Z,65.10
2023-01-11T07:05:18.876Z,64.78
2023-01-11T07:06:17.488Z,70.58
2023-01-11T07:07:16.484Z,68.48
2023-01-11T07:08:16.499Z,60.59
2023-01-11T07:09:16.465Z,65.58
2023-01-11T07:10:16.456Z,70.90
2023-01-11T07:11:16.505Z,63.81
2023-01-11T07:12:16.445Z,68.00
2023-01-11T07:13:16.521Z,63.16
2023-01-11T07:14:16.442Z,71.22
2023-01-11T07:15:16.439Z,69.61
2023-01-11T07:16:16.491Z,66.71
2023-01-11T07:17:16.423Z,74.93
2023-01-11T07:18:17.019Z,68.00
2023-01-11T07:19:16.428Z,68.48
2023-01-11T07:20:16.407Z,69.93
2023-01-11T07:21:16.419Z,62.52
2023-01-11T07:22:16.416Z,66.39
2023-01-11T07:23:16.426Z,71.06
2023-01-11T07:24:16.388Z,67.19
2023-01-11T07:25:16.375Z,72.03
2023-01-11T07:26:16.479Z,58.97
2023-01-11T07:27:16.363Z,66.55
2023-01-11T07:28:16.368Z,68.16
2023-01-11T07:29:16.407Z,67.35
2023-01-11T07:30:16.370Z,71.22
2023-01-11T07:31:17.430Z,64.61
2023-01-11T07:32:16.350Z,61.55
2023-01-11T07:33:16.349Z,76.38
2023-01-11T07:34:16.329Z,71.38
2023-01-11T07:35:16.361Z,65.74
2023-01-11T07:36:16.372Z,67.68
2023-01-11T07:37:28.283Z,68.00
2023-01-11T07:38:17.333Z,65.74
2023-01-11T07:39:16.315Z,72.35
2023-01-11T07:40:16.300Z,59.62
2023-01-11T07:41:16.343Z,64.94
2023-01-11T07:42:16.287Z,60.26
2023-01-11T07:43:16.279Z,65.42
2023-01-11T07:44:16.308Z,63.16
2023-01-11T07:45:16.326Z,65.58
2023-01-11T07:46:16.347Z,64.13
2023-01-11T07:47:16.350Z,61.87
2023-01-11T07:48:16.264Z,63.65
2023-01-11T07:49:16.262Z,70.90
2023-01-11T07:50:16.243Z,65.74
2023-01-11T07:51:16.280Z,66.23
2023-01-11T07:52:16.252Z,65.90
2023-01-11T07:53:16.222Z,60.59
2023-01-11T07:54:16.243Z,63.33
2023-01-11T07:55:16.216Z,65.10
2023-01-11T07:56:16.196Z,61.87
2023-01-11T07:57:17.258Z,61.87
2023-01-11T07:58:16.197Z,69.61
2023-01-11T07:59:16.186Z,66.71
2023-01-11T08:00:16.196Z,59.94
2023-01-11T08:01:16.199Z,60.26
2023-01-11T08:02:16.250Z,62.20
2023-01-11T08:03:16.432Z,68.48
2023-01-11T08:04:16.194Z,65.90
2023-01-11T08:05:16.181Z,65.90
2023-01-11T08:06:16.181Z,67.03
2023-01-11T08:07:16.148Z,68.00
2023-01-11T08:08:16.145Z,72.35
2023-01-11T08:09:16.126Z,65.26
2023-01-11T08:10:16.130Z,68.16
2023-01-11T08:11:16.114Z,71.22
2023-01-11T08:12:16.109Z,61.07
2023-01-11T08:13:16.133Z,65.58
2023-01-11T08:14:16.159Z,65.90
2023-01-11T08:15:16.123Z,62.84
2023-01-11T08:16:16.157Z,68.80
2023-01-11T08:17:16.098Z,60.26
2023-01-11T08:18:16.098Z,69.93
2023-01-11T08:19:16.074Z,66.87
2023-01-11T08:20:16.091Z,71.54
2023-01-11T08:21:16.069Z,66.23
2023-01-11T08:22:16.068Z,63.97
2023-01-11T08:23:16.076Z,65.74
2023-01-11T08:24:16.060Z,66.87
2023-01-11T08:25:16.035Z,63.81
2023-01-11T08:26:16.038Z,65.10
2023-01-11T08:27:16.019Z,66.71
2023-01-11T08:28:16.023Z,65.42
2023-01-11T08:29:16.014Z,66.71
2023-01-11T08:30:16.028Z,65.42
2023-01-11T08:31:16.061Z,63.33
2023-01-11T08:32:16.014Z,65.90
2023-01-11T08:33:16.002Z,67.51
2023-01-11T08:34:16.023Z,69.93
2023-01-11T08:35:15.985Z,66.55
2023-01-11T08:36:15.974Z,68.64
2023-01-11T08:37:17.002Z,66.23
2023-01-11T08:38:15.974Z,67.03
2023-01-11T08:39:15.960Z,69.93
2023-01-11T08:40:15.979Z,62.52
2023-01-11T08:41:15.960Z,72.51
2023-01-11T08:42:15.961Z,62.04
2023-01-11T08:43:15.955Z,69.13
2023-01-11T08:44:22.360Z,67.51
2023-01-11T08:45:16.919Z,65.90
2023-01-11T08:46:16.018Z,63.33
2023-01-11T08:47:15.952Z,60.10
2023-01-11T08:48:15.927Z,64.13
2023-01-11T08:49:15.939Z,65.74
2023-01-11T08:50:15.918Z,61.87
2023-01-11T08:51:15.915Z,63.65
2023-01-11T08:52:15.911Z,60.59
2023-01-11T08:53:15.895Z,69.13
2023-01-11T08:54:15.906Z,65.42
2023-01-11T08:55:15.896Z,71.06
2023-01-11T08:56:15.861Z,72.67
2023-01-11T08:57:15.858Z,62.68
2023-01-11T08:58:15.876Z,59.78
2023-01-11T08:59:15.858Z,66.39
2023-01-11T09:00:15.846Z,64.61
2023-01-11T09:01:15.895Z,64.61
2023-01-11T09:02:15.847Z,64.13
2023-01-11T09:03:15.827Z,68.96
2023-01-11T09:04:24.705Z,70.09
2023-01-11T09:05:18.457Z,68.64
2023-01-11T09:06:16.819Z,64.94
2023-01-11T09:07:15.804Z,65.10
2023-01-11T09:08:15.830Z,69.93
2023-01-11T09:09:15.880Z,67.51
2023-01-11T09:10:15.843Z,70.58
2023-01-11T09:11:16.785Z,59.78
2023-01-11T09:12:15.805Z,63.16
2023-01-11T09:13:15.780Z,72.19
2023-01-11T09:14:15.764Z,69.77
2023-01-11T09:15:15.781Z,65.42
2023-01-11T09:16:15.772Z,66.87
2023-01-11T09:17:15.744Z,66.23
2023-01-11T09:18:15.748Z,64.45
2023-01-11T09:19:15.748Z,60.10
2023-01-11T09:20:15.761Z,61.07
2023-01-11T09:21:15.743Z,62.04
2023-01-11T09:22:15.744Z,62.36
2023-01-11T09:23:15.734Z,62.52
2023-01-11T09:24:15.715Z,68.16
2023-01-11T09:25:15.727Z,68.96
2023-01-11T09:26:15.808Z,70.25
2023-01-11T09:27:15.718Z,61.39
2023-01-11T09:28:15.691Z,70.09
2023-01-11T09:29:15.741Z,67.51
2023-01-11T09:30:15.703Z,68.00
2023-01-11T09:31:15.705Z,69.13
2023-01-11T09:32:15.668Z,65.26
2023-01-11T09:33:15.664Z,64.45
2023-01-11T09:34:15.666Z,63.49
2023-01-11T09:35:15.674Z,71.38
2023-01-11T09:36:15.663Z,61.71
2023-01-11T09:37:15.638Z,60.75
2023-01-11T09:38:15.636Z,63.16
2023-01-11T09:39:15.639Z,59.62
2023-01-11T09:40:15.656Z,68.96
2023-01-11T09:41:15.636Z,67.51
2023-01-11T09:42:15.649Z,68.00
2023-01-11T09:43:15.609Z,69.45
2023-01-11T09:44:15.626Z,66.23
2023-01-11T09:45:15.627Z,62.04
2023-01-11T09:46:15.677Z,70.42
2023-01-11T09:47:15.619Z,60.59
2023-01-11T09:48:15.596Z,65.58
2023-01-11T09:49:15.597Z,63.65
2023-01-11T09:50:15.575Z,67.68
2023-01-11T09:51:15.614Z,67.35
2023-01-11T09:52:15.603Z,65.10
2023-01-11T09:53:15.541Z,60.42
2023-01-11T09:54:15.542Z,65.90
2023-01-11T09:55:15.541Z,68.00
2023-01-11T09:56:15.537Z,70.25
2023-01-11T09:57:15.564Z,65.10
2023-01-11T09:58:16.571Z,70.25
2023-01-11T09:59:15.511Z,57.52
2023-01-11T10:00:15.552Z,66.55
2023-01-11T10:01:15.635Z,67.19
2023-01-11T10:02:18.014Z,61.07
2023-01-11T10:03:15.494Z,70.90
2023-01-11T10:04:15.502Z,66.55
2023-01-11T10:05:15.511Z,59.30
2023-01-11T10:06:15.474Z,59.62
2023-01-11T10:07:15.465Z,59.14
2023-01-11T10:18:25.683Z,70.42
2023-01-11T10:18:31.449Z,68.00
2023-01-11T10:18:33.752Z,64.61
2023-01-11T10:18:37.347Z,65.90
2023-01-11T10:18:42.707Z,61.39
2023-01-11T10:19:36.494Z,71.06
2023-01-11T10:20:17.498Z,65.90
2023-01-11T10:21:15.396Z,62.68
2023-01-11T10:22:15.386Z,66.87
2023-01-11T10:23:15.380Z,61.55
2023-01-11T10:24:15.388Z,67.35
2023-01-11T10:25:15.349Z,70.74
2023-01-11T10:26:15.344Z,70.58
2023-01-11T10:27:15.408Z,70.58
2023-01-11T10:28:15.404Z,65.10
2023-01-11T10:29:16.016Z,69.13
2023-01-11T10:30:15.328Z,62.04
2023-01-11T10:31:15.373Z,70.58
2023-01-11T10:32:15.381Z,71.54
2023-01-11T10:33:15.306Z,67.03
2023-01-11T10:34:15.325Z,67.84
2023-01-11T10:35:15.331Z,73.80
2023-01-11T10:36:15.299Z,67.19
2023-01-11T10:37:15.312Z,64.61
2023-01-11T10:38:15.267Z,69.45
2023-01-11T10:39:15.254Z,68.96
2023-01-11T10:40:15.319Z,71.38
2023-01-11T10:41:15.249Z,63.65
2023-01-11T10:42:15.246Z,68.80
2023-01-11T10:43:15.264Z,65.58
2023-01-11T10:44:15.225Z,67.35
2023-01-11T10:45:16.272Z,61.87
2023-01-11T10:46:15.217Z,62.84
2023-01-11T10:47:15.208Z,65.74
2023-01-11T10:48:15.205Z,64.29
2023-01-11T10:49:15.202Z,75.25
2023-01-11T10:50:15.210Z,61.55
2023-01-11T10:51:15.206Z,72.67
2023-01-11T10:52:15.239Z,71.22
2023-01-11T10:53:15.215Z,65.90
2023-01-11T10:54:15.180Z,67.84
2023-01-11T10:55:15.183Z,72.19
2023-01-11T10:56:15.194Z,60.75
2023-01-11T10:57:15.156Z,65.90
2023-01-11T10:58:15.163Z,65.58
2023-01-11T10:59:15.149Z,74.12
2023-01-11T11:00:15.131Z,57.69
2023-01-11T11:01:15.177Z,70.58
2023-01-11T11:02:15.286Z,67.84
2023-01-11T11:03:15.128Z,65.90
2023-01-11T11:04:15.141Z,70.90
2023-01-11T11:05:15.109Z,64.61
2023-01-11T11:06:15.103Z,62.20
2023-01-11T11:07:15.153Z,65.74
2023-01-11T11:08:15.093Z,66.23
2023-01-11T11:09:15.092Z,68.48
2023-01-11T11:10:15.076Z,69.29
2023-01-11T11:11:15.070Z,66.39
2023-01-11T11:12:15.075Z,69.45
2023-01-11T11:13:15.070Z,68.64
2023-01-11T11:14:15.054Z,63.33
2023-01-11T11:15:15.087Z,58.65
2023-01-11T11:16:15.147Z,59.62
2023-01-11T11:17:15.065Z,70.74
2023-01-11T11:18:15.044Z,61.07
2023-01-11T11:19:15.033Z,59.62
2023-01-11T11:20:15.002Z,69.93
2023-01-11T11:21:15.004Z,62.52
2023-01-11T11:22:15.043Z,58.65
2023-01-11T11:23:15.047Z,58.17
2023-01-11T11:24:14.976Z,65.90
2023-01-11T11:25:14.991Z,66.71
2023-01-11T11:26:14.977Z,71.70
2023-01-11T11:27:15.023Z,70.90
2023-01-11T11:28:14.946Z,70.42
2023-01-11T11:29:14.956Z,65.42
2023-01-11T11:30:14.945Z,69.93
2023-01-11T11:31:14.986Z,72.19
2023-01-11T11:32:14.939Z,65.74
2023-01-11T11:33:15.011Z,68.16
2023-01-11T11:34:14.925Z,68.48
2023-01-11T11:35:14.906Z,66.71
2023-01-11T11:36:14.895Z,70.58
2023-01-11T11:37:14.894Z,72.51
2023-01-11T11:38:14.921Z,69.93
2023-01-11T11:39:14.885Z,72.03
2023-01-11T11:40:14.869Z,68.64
2023-01-11T11:41:15.512Z,64.94
2023-01-11T11:42:14.868Z,61.39
2023-01-11T11:43:14.890Z,67.35
2023-01-11T11:44:14.891Z,65.26
2023-01-11T11:45:14.856Z,71.22
2023-01-11T11:46:19.380Z,69.13
2023-01-11T11:47:15.828Z,68.80
2023-01-11T11:48:14.868Z,66.06
2023-01-11T11:49:14.820Z,67.35
2023-01-11T11:50:15.947Z,69.77
2023-01-11T11:51:14.811Z,68.16
2023-01-11T11:52:14.806Z,72.51
2023-01-11T11:53:14.841Z,69.77
2023-01-11T11:54:14.800Z,63.49
2023-01-11T11:55:14.818Z,64.45
2023-01-11T11:56:14.775Z,67.19
2023-01-11T11:57:14.764Z,68.00
2023-01-11T11:58:14.779Z,69.29
2023-01-11T11:59:14.766Z,62.84
2023-01-11T12:00:14.744Z,68.48
2023-01-11T12:01:14.805Z,66.87
2023-01-11T12:02:14.791Z,72.03
2023-01-11T12:03:14.727Z,71.54
2023-01-11T12:04:14.717Z,70.25
2023-01-11T12:05:14.827Z,66.55
2023-01-11T12:06:14.708Z,69.45
2023-01-11T12:07:14.712Z,65.74
2023-01-11T12:08:14.680Z,65.10
2023-01-11T12:09:14.675Z,71.54
2023-01-11T12:10:14.739Z,67.35
2023-01-11T12:11:14.672Z,62.04
2023-01-11T12:12:14.691Z,68.96
2023-01-11T12:13:14.675Z,67.51
2023-01-11T12:14:14.672Z,68.32
2023-01-11T12:15:14.634Z,65.90
2023-01-11T12:16:14.703Z,70.90
2023-01-11T12:17:14.657Z,66.71
2023-01-11T12:18:15.494Z,67.51
2023-01-11T12:19:15.645Z,68.80
2023-01-11T12:20:14.684Z,66.23
2023-01-11T12:21:14.623Z,62.04
2023-01-11T12:22:14.618Z,60.10
2023-01-11T12:23:14.599Z,68.48
2023-01-11T12:24:14.620Z,70.74
2023-01-11T12:25:14.583Z,68.00
2023-01-11T12:26:14.663Z,67.35
2023-01-11T12:27:14.621Z,65.26
2023-01-11T12:28:14.583Z,69.61
2023-01-11T12:29:14.566Z,68.32
2023-01-11T12:30:14.590Z,67.03
2023-01-11T12:31:14.630Z,63.00
2023-01-11T12:32:14.524Z,61.55
2023-01-11T12:33:14.533Z,70.90
2023-01-11T12:34:14.531Z,69.13
2023-01-11T12:35:14.533Z,73.15
2023-01-11T12:36:14.539Z,72.35
2023-01-11T12:37:14.515Z,64.78
2023-01-11T12:38:14.486Z,61.39
2023-01-11T12:39:14.502Z,64.61
2023-01-11T12:40:14.596Z,64.13
2023-01-11T12:41:14.508Z,62.52
2023-01-11T12:42:14.474Z,68.64
2023-01-11T12:43:14.445Z,70.58
2023-01-11T12:44:14.490Z,71.70
2023-01-11T12:45:14.446Z,65.74
2023-01-11T12:46:14.576Z,64.29
2023-01-11T12:47:16.164Z,66.23
2023-01-11T12:48:14.417Z,66.71
2023-01-11T12:49:14.421Z,70.25
2023-01-11T12:50:14.554Z,73.96
2023-01-11T12:51:14.413Z,67.35
2023-01-11T12:52:14.410Z,65.90
2023-01-11T12:53:14.415Z,69.29
2023-01-11T12:54:14.380Z,66.39
2023-01-11T12:55:14.378Z,66.55
2023-01-11T12:56:14.396Z,68.32
2023-01-11T12:57:14.353Z,67.03
2023-01-11T12:58:14.715Z,69.13